sensor_id;sensor_type;location;lat;lon;timestamp;pressure;altitude;pressure_sealevel;temperature;humidity
49645;BME280;36494;50.730;-1.932;2023-01-25T00:02:02;103238.13;;;-1.78;100.00
49645;BME280;36494;50.730;-1.932;2023-01-25T00:04:27;103236.26;;;-1.77;100.00
49645;BME280;36494;50.730;-1.932;2023-01-25T00:06:53;103235.01;;;-1.77;100.00
49645;BME280;36494;50.730;-1.932;2023-01-25T00:09:19;103235.54;;;-1.77;100.00
49645;BME280;36494;50.730;-1.932;2023-01-25T00:11:44;103232.90;;;-1.79;100.00
49645;BME280;36494;50.730;-1.932;2023-01-25T00:14:09;103229.93;;;-1.81;100.00
49645;BME280;36494;50.730;-1.932;2023-01-25T00:16:34;103223.96;;;-1.80;100.00
49645;BME280;36494;50.730;-1.932;2023-01-25T00:18:59;103222.83;;;-1.84;100.00
49645;BME280;36494;50.730;-1.932;2023-01-25T00:21:25;103222.85;;;-1.84;100.00
49645;BME280;36494;50.730;-1.932;2023-01-25T00:23:50;103222.50;;;-1.86;100.00
49645;BME280;36494;50.730;-1.932;2023-01-25T00:26:15;103223.37;;;-1.87;100.00
49645;BME280;36494;50.730;-1.932;2023-01-25T00:28:40;103225.28;;;-1.90;100.00
49645;BME280;36494;50.730;-1.932;2023-01-25T00:31:08;103223.17;;;-1.92;100.00
49645;BME280;36494;50.730;-1.932;2023-01-25T00:33:38;103222.29;;;-1.92;100.00
49645;BME280;36494;50.730;-1.932;2023-01-25T00:35:57;103221.18;;;-1.89;100.00
49645;BME280;36494;50.730;-1.932;2023-01-25T00:38:27;103216.16;;;-1.88;100.00
49645;BME280;36494;50.730;-1.932;2023-01-25T00:40:48;103214.56;;;-1.90;100.00
49645;BME280;36494;50.730;-1.932;2023-01-25T00:43:13;103212.82;;;-1.88;100.00
49645;BME280;36494;50.730;-1.932;2023-01-25T00:45:39;103208.04;;;-1.86;100.00
49645;BME280;36494;50.730;-1.932;2023-01-25T00:48:05;103205.99;;;-1.85;100.00
49645;BME280;36494;50.730;-1.932;2023-01-25T00:50:30;103212.05;;;-1.87;100.00
49645;BME280;36494;50.730;-1.932;2023-01-25T00:52:55;103215.01;;;-1.88;100.00
49645;BME280;36494;50.730;-1.932;2023-01-25T00:55:21;103215.21;;;-1.89;100.00
49645;BME280;36494;50.730;-1.932;2023-01-25T00:57:46;103218.43;;;-1.90;100.00
49645;BME280;36494;50.730;-1.932;2023-01-25T01:00:13;103218.73;;;-1.92;100.00
49645;BME280;36494;50.730;-1.932;2023-01-25T01:02:38;103221.24;;;-1.92;100.00
49645;BME280;36494;50.730;-1.932;2023-01-25T01:05:04;103222.06;;;-1.97;100.00
49645;BME280;36494;50.730;-1.932;2023-01-25T01:07:29;103219.43;;;-1.93;100.00
49645;BME280;36494;50.730;-1.932;2023-01-25T01:09:55;103216.52;;;-1.96;100.00
49645;BME280;36494;50.730;-1.932;2023-01-25T01:12:20;103212.84;;;-2.02;100.00
49645;BME280;36494;50.730;-1.932;2023-01-25T01:14:45;103210.57;;;-2.01;100.00
49645;BME280;36494;50.730;-1.932;2023-01-25T01:17:11;103207.02;;;-2.01;100.00
49645;BME280;36494;50.730;-1.932;2023-01-25T01:19:37;103205.84;;;-2.01;100.00
49645;BME280;36494;50.730;-1.932;2023-01-25T01:22:02;103202.96;;;-2.04;100.00
49645;BME280;36494;50.730;-1.932;2023-01-25T01:24:28;103203.84;;;-2.06;100.00
49645;BME280;36494;50.730;-1.932;2023-01-25T01:26:53;103199.46;;;-2.07;100.00
49645;BME280;36494;50.730;-1.932;2023-01-25T01:29:18;103198.79;;;-2.08;100.00
49645;BME280;36494;50.730;-1.932;2023-01-25T01:31:44;103199.34;;;-2.09;100.00
49645;BME280;36494;50.730;-1.932;2023-01-25T01:34:12;103196.99;;;-2.10;100.00
49645;BME280;36494;50.730;-1.932;2023-01-25T01:36:35;103194.21;;;-2.11;100.00
49645;BME280;36494;50.730;-1.932;2023-01-25T01:39:00;103194.85;;;-2.09;100.00
49645;BME280;36494;50.730;-1.932;2023-01-25T01:41:26;103197.34;;;-2.09;100.00
49645;BME280;36494;50.730;-1.932;2023-01-25T01:43:51;103197.30;;;-2.11;100.00
49645;BME280;36494;50.730;-1.932;2023-01-25T01:46:22;103196.24;;;-2.11;100.00
49645;BME280;36494;50.730;-1.932;2023-01-25T01:48:46;103196.55;;;-2.14;100.00
49645;BME280;36494;50.730;-1.932;2023-01-25T01:51:13;103201.40;;;-2.15;100.00
49645;BME280;36494;50.730;-1.932;2023-01-25T01:53:33;103205.19;;;-2.17;100.00
49645;BME280;36494;50.730;-1.932;2023-01-25T01:56:00;103206.81;;;-2.18;100.00
49645;BME280;36494;50.730;-1.932;2023-01-25T01:58:23;103210.37;;;-2.20;100.00
49645;BME280;36494;50.730;-1.932;2023-01-25T02:00:49;103212.17;;;-2.22;100.00
49645;BME280;36494;50.730;-1.932;2023-01-25T02:03:14;103218.37;;;-2.17;100.00
49645;BME280;36494;50.730;-1.932;2023-01-25T02:05:50;103216.02;;;-2.16;100.00
49645;BME280;36494;50.730;-1.932;2023-01-25T02:08:07;103223.19;;;-2.17;100.00
49645;BME280;36494;50.730;-1.932;2023-01-25T02:10:30;103222.32;;;-2.17;100.00
49645;BME280;36494;50.730;-1.932;2023-01-25T02:12:57;103220.41;;;-2.16;100.00
49645;BME280;36494;50.730;-1.932;2023-01-25T02:15:21;103224.48;;;-2.14;100.00
49645;BME280;36494;50.730;-1.932;2023-01-25T02:17:48;103228.98;;;-2.16;100.00
49645;BME280;36494;50.730;-1.932;2023-01-25T02:20:18;103226.50;;;-2.18;100.00
49645;BME280;36494;50.730;-1.932;2023-01-25T02:22:41;103226.68;;;-2.22;100.00
49645;BME280;36494;50.730;-1.932;2023-01-25T02:25:05;103230.69;;;-2.24;100.00
49645;BME280;36494;50.730;-1.932;2023-01-25T02:27:28;103232.12;;;-2.21;100.00
49645;BME280;36494;50.730;-1.932;2023-01-25T02:29:53;103231.71;;;-2.19;100.00
49645;BME280;36494;50.730;-1.932;2023-01-25T02:32:19;103228.08;;;-2.21;100.00
49645;BME280;36494;50.730;-1.932;2023-01-25T02:34:44;103224.90;;;-2.23;100.00
49645;BME280;36494;50.730;-1.932;2023-01-25T02:37:12;103226.75;;;-2.19;100.00
49645;BME280;36494;50.730;-1.932;2023-01-25T02:39:34;103227.34;;;-2.21;100.00
49645;BME280;36494;50.730;-1.932;2023-01-25T02:42:00;103224.60;;;-2.24;100.00
49645;BME280;36494;50.730;-1.932;2023-01-25T02:44:29;103224.25;;;-2.22;100.00
49645;BME280;36494;50.730;-1.932;2023-01-25T02:46:51;103226.18;;;-2.17;100.00
49645;BME280;36494;50.730;-1.932;2023-01-25T02:49:17;103224.71;;;-2.16;100.00
49645;BME280;36494;50.730;-1.932;2023-01-25T02:51:44;103221.78;;;-2.15;100.00
49645;BME280;36494;50.730;-1.932;2023-01-25T02:54:09;103217.91;;;-2.17;100.00
49645;BME280;36494;50.730;-1.932;2023-01-25T02:56:32;103212.55;;;-2.14;100.00
49645;BME280;36494;50.730;-1.932;2023-01-25T02:58:58;103213.27;;;-2.12;100.00
49645;BME280;36494;50.730;-1.932;2023-01-25T03:01:24;103213.33;;;-2.09;100.00
49645;BME280;36494;50.730;-1.932;2023-01-25T03:03:49;103213.99;;;-2.08;100.00
49645;BME280;36494;50.730;-1.932;2023-01-25T03:06:15;103214.79;;;-2.08;100.00
49645;BME280;36494;50.730;-1.932;2023-01-25T03:08:41;103215.15;;;-2.08;100.00
49645;BME280;36494;50.730;-1.932;2023-01-25T03:11:07;103213.70;;;-2.08;100.00
49645;BME280;36494;50.730;-1.932;2023-01-25T03:13:35;103212.50;;;-2.06;100.00
49645;BME280;36494;50.730;-1.932;2023-01-25T03:15:59;103212.69;;;-2.06;100.00
49645;BME280;36494;50.730;-1.932;2023-01-25T03:18:23;103207.08;;;-2.05;100.00
49645;BME280;36494;50.730;-1.932;2023-01-25T03:20:49;103202.66;;;-2.04;100.00
49645;BME280;36494;50.730;-1.932;2023-01-25T03:23:15;103203.46;;;-2.02;100.00
49645;BME280;36494;50.730;-1.932;2023-01-25T03:25:40;103200.42;;;-2.02;100.00
49645;BME280;36494;50.730;-1.932;2023-01-25T03:28:06;103194.90;;;-2.03;100.00
49645;BME280;36494;50.730;-1.932;2023-01-25T03:30:31;103196.63;;;-2.04;100.00
49645;BME280;36494;50.730;-1.932;2023-01-25T03:32:56;103195.92;;;-2.04;100.00
49645;BME280;36494;50.730;-1.932;2023-01-25T03:35:22;103195.52;;;-2.07;100.00
49645;BME280;36494;50.730;-1.932;2023-01-25T03:37:47;103198.43;;;-2.12;100.00
49645;BME280;36494;50.730;-1.932;2023-01-25T03:40:12;103199.49;;;-2.13;100.00
49645;BME280;36494;50.730;-1.932;2023-01-25T03:42:38;103198.33;;;-2.12;100.00
49645;BME280;36494;50.730;-1.932;2023-01-25T03:45:04;103196.13;;;-2.17;100.00
49645;BME280;36494;50.730;-1.932;2023-01-25T03:47:28;103190.50;;;-2.16;100.00
49645;BME280;36494;50.730;-1.932;2023-01-25T03:49:54;103186.93;;;-2.16;100.00
49645;BME280;36494;50.730;-1.932;2023-01-25T03:52:20;103183.60;;;-2.14;100.00
49645;BME280;36494;50.730;-1.932;2023-01-25T03:54:45;103180.75;;;-2.16;100.00
49645;BME280;36494;50.730;-1.932;2023-01-25T03:57:10;103180.29;;;-2.21;100.00
49645;BME280;36494;50.730;-1.932;2023-01-25T03:59:35;103179.78;;;-2.23;100.00
49645;BME280;36494;50.730;-1.932;2023-01-25T04:02:01;103173.77;;;-2.27;100.00
49645;BME280;36494;50.730;-1.932;2023-01-25T04:04:28;103169.16;;;-2.29;100.00
49645;BME280;36494;50.730;-1.932;2023-01-25T04:06:53;103165.56;;;-2.28;100.00
49645;BME280;36494;50.730;-1.932;2023-01-25T04:09:18;103166.20;;;-2.28;100.00
49645;BME280;36494;50.730;-1.932;2023-01-25T04:11:43;103166.13;;;-2.33;100.00
49645;BME280;36494;50.730;-1.932;2023-01-25T04:14:09;103166.92;;;-2.33;100.00
49645;BME280;36494;50.730;-1.932;2023-01-25T04:16:34;103165.90;;;-2.36;100.00
49645;BME280;36494;50.730;-1.932;2023-01-25T04:19:00;103165.72;;;-2.38;100.00
49645;BME280;36494;50.730;-1.932;2023-01-25T04:21:26;103169.85;;;-2.40;100.00
49645;BME280;36494;50.730;-1.932;2023-01-25T04:23:51;103171.45;;;-2.39;100.00
49645;BME280;36494;50.730;-1.932;2023-01-25T04:26:17;103170.73;;;-2.40;100.00
49645;BME280;36494;50.730;-1.932;2023-01-25T04:28:42;103168.54;;;-2.41;100.00
49645;BME280;36494;50.730;-1.932;2023-01-25T04:31:08;103167.15;;;-2.41;100.00
49645;BME280;36494;50.730;-1.932;2023-01-25T04:33:33;103168.79;;;-2.41;100.00
49645;BME280;36494;50.730;-1.932;2023-01-25T04:35:58;103169.33;;;-2.42;100.00
49645;BME280;36494;50.730;-1.932;2023-01-25T04:38:24;103168.12;;;-2.41;100.00
49645;BME280;36494;50.730;-1.932;2023-01-25T04:40:50;103166.90;;;-2.42;100.00
49645;BME280;36494;50.730;-1.932;2023-01-25T04:43:15;103172.07;;;-2.42;100.00
49645;BME280;36494;50.730;-1.932;2023-01-25T04:45:40;103171.53;;;-2.42;100.00
49645;BME280;36494;50.730;-1.932;2023-01-25T04:48:06;103170.17;;;-2.42;100.00
49645;BME280;36494;50.730;-1.932;2023-01-25T04:50:30;103168.02;;;-2.41;100.00
49645;BME280;36494;50.730;-1.932;2023-01-25T04:52:55;103167.34;;;-2.42;100.00
49645;BME280;36494;50.730;-1.932;2023-01-25T04:55:21;103166.26;;;-2.43;100.00
49645;BME280;36494;50.730;-1.932;2023-01-25T04:57:48;103165.90;;;-2.37;100.00
49645;BME280;36494;50.730;-1.932;2023-01-25T05:00:13;103164.98;;;-2.35;100.00
49645;BME280;36494;50.730;-1.932;2023-01-25T05:02:38;103165.48;;;-2.35;100.00
49645;BME280;36494;50.730;-1.932;2023-01-25T05:05:04;103162.81;;;-2.38;100.00
49645;BME280;36494;50.730;-1.932;2023-01-25T05:07:28;103164.23;;;-2.35;100.00
49645;BME280;36494;50.730;-1.932;2023-01-25T05:09:53;103170.57;;;-2.38;100.00
49645;BME280;36494;50.730;-1.932;2023-01-25T05:12:19;103169.65;;;-2.36;100.00
49645;BME280;36494;50.730;-1.932;2023-01-25T05:14:45;103174.20;;;-2.31;100.00
49645;BME280;36494;50.730;-1.932;2023-01-25T05:17:09;103176.25;;;-2.34;100.00
49645;BME280;36494;50.730;-1.932;2023-01-25T05:19:35;103179.63;;;-2.34;100.00
49645;BME280;36494;50.730;-1.932;2023-01-25T05:22:01;103184.81;;;-2.30;100.00
49645;BME280;36494;50.730;-1.932;2023-01-25T05:24:26;103183.79;;;-2.27;100.00
49645;BME280;36494;50.730;-1.932;2023-01-25T05:26:51;103183.47;;;-2.28;100.00
49645;BME280;36494;50.730;-1.932;2023-01-25T05:29:16;103186.66;;;-2.28;100.00
49645;BME280;36494;50.730;-1.932;2023-01-25T05:31:41;103197.31;;;-2.31;100.00
49645;BME280;36494;50.730;-1.932;2023-01-25T05:34:07;103194.20;;;-2.33;100.00
49645;BME280;36494;50.730;-1.932;2023-01-25T05:36:33;103199.04;;;-2.31;100.00
49645;BME280;36494;50.730;-1.932;2023-01-25T05:38:58;103202.56;;;-2.51;100.00
49645;BME280;36494;50.730;-1.932;2023-01-25T05:41:24;103201.72;;;-2.44;100.00
49645;BME280;36494;50.730;-1.932;2023-01-25T05:43:49;103202.88;;;-2.49;100.00
49645;BME280;36494;50.730;-1.932;2023-01-25T05:46:15;103202.07;;;-2.43;100.00
49645;BME280;36494;50.730;-1.932;2023-01-25T05:48:40;103199.46;;;-2.45;100.00
49645;BME280;36494;50.730;-1.932;2023-01-25T05:51:06;103196.06;;;-2.49;100.00
49645;BME280;36494;50.730;-1.932;2023-01-25T05:53:31;103192.73;;;-2.42;100.00
49645;BME280;36494;50.730;-1.932;2023-01-25T05:56:03;103189.62;;;-2.39;100.00
49645;BME280;36494;50.730;-1.932;2023-01-25T05:58:22;103185.30;;;-2.35;100.00
49645;BME280;36494;50.730;-1.932;2023-01-25T06:00:47;103184.70;;;-2.35;100.00
49645;BME280;36494;50.730;-1.932;2023-01-25T06:03:13;103182.15;;;-2.39;100.00
49645;BME280;36494;50.730;-1.932;2023-01-25T06:05:38;103178.63;;;-2.33;100.00
49645;BME280;36494;50.730;-1.932;2023-01-25T06:08:04;103179.72;;;-2.33;100.00
49645;BME280;36494;50.730;-1.932;2023-01-25T06:10:30;103179.23;;;-2.36;100.00
49645;BME280;36494;50.730;-1.932;2023-01-25T06:12:57;103178.37;;;-2.32;100.00
49645;BME280;36494;50.730;-1.932;2023-01-25T06:15:21;103174.30;;;-2.33;100.00
49645;BME280;36494;50.730;-1.932;2023-01-25T06:17:46;103171.30;;;-2.29;100.00
49645;BME280;36494;50.730;-1.932;2023-01-25T06:20:12;103173.73;;;-2.24;100.00
49645;BME280;36494;50.730;-1.932;2023-01-25T06:22:37;103170.17;;;-2.29;100.00
49645;BME280;36494;50.730;-1.932;2023-01-25T06:25:02;103166.73;;;-2.23;100.00
49645;BME280;36494;50.730;-1.932;2023-01-25T06:27:27;103168.42;;;-2.20;100.00
49645;BME280;36494;50.730;-1.932;2023-01-25T06:29:53;103169.50;;;-2.21;100.00
49645;BME280;36494;50.730;-1.932;2023-01-25T06:32:18;103163.44;;;-2.22;100.00
49645;BME280;36494;50.730;-1.932;2023-01-25T06:34:43;103161.47;;;-2.16;100.00
49645;BME280;36494;50.730;-1.932;2023-01-25T06:37:09;103158.93;;;-2.14;100.00
49645;BME280;36494;50.730;-1.932;2023-01-25T06:39:34;103156.25;;;-2.08;100.00
49645;BME280;36494;50.730;-1.932;2023-01-25T06:41:59;103155.74;;;-2.07;100.00
49645;BME280;36494;50.730;-1.932;2023-01-25T06:44:25;103152.62;;;-2.04;100.00
49645;BME280;36494;50.730;-1.932;2023-01-25T06:46:50;103147.97;;;-1.99;100.00
49645;BME280;36494;50.730;-1.932;2023-01-25T06:49:16;103149.26;;;-1.98;100.00
49645;BME280;36494;50.730;-1.932;2023-01-25T06:51:41;103151.06;;;-1.94;100.00
49645;BME280;36494;50.730;-1.932;2023-01-25T06:54:06;103148.29;;;-1.93;100.00
49645;BME280;36494;50.730;-1.932;2023-01-25T06:56:31;103149.09;;;-1.84;100.00
49645;BME280;36494;50.730;-1.932;2023-01-25T06:58:57;103143.88;;;-1.82;100.00
49645;BME280;36494;50.730;-1.932;2023-01-25T07:01:23;103143.99;;;-1.81;100.00
49645;BME280;36494;50.730;-1.932;2023-01-25T07:03:48;103142.23;;;-1.78;100.00
49645;BME280;36494;50.730;-1.932;2023-01-25T07:06:13;103141.16;;;-1.76;100.00
49645;BME280;36494;50.730;-1.932;2023-01-25T07:08:38;103146.10;;;-1.75;100.00
49645;BME280;36494;50.730;-1.932;2023-01-25T07:11:06;103145.56;;;-1.71;100.00
49645;BME280;36494;50.730;-1.932;2023-01-25T07:13:30;103145.63;;;-1.72;100.00
49645;BME280;36494;50.730;-1.932;2023-01-25T07:15:56;103142.03;;;-1.72;100.00
49645;BME280;36494;50.730;-1.932;2023-01-25T07:18:20;103139.67;;;-1.68;100.00
49645;BME280;36494;50.730;-1.932;2023-01-25T07:20:45;103138.07;;;-1.63;100.00
49645;BME280;36494;50.730;-1.932;2023-01-25T07:23:10;103140.49;;;-1.58;100.00
49645;BME280;36494;50.730;-1.932;2023-01-25T07:25:36;103141.40;;;-1.55;100.00
49645;BME280;36494;50.730;-1.932;2023-01-25T07:28:01;103141.28;;;-1.52;100.00
49645;BME280;36494;50.730;-1.932;2023-01-25T07:30:27;103140.86;;;-1.53;100.00
49645;BME280;36494;50.730;-1.932;2023-01-25T07:32:52;103141.96;;;-1.49;100.00
49645;BME280;36494;50.730;-1.932;2023-01-25T07:35:18;103140.07;;;-1.48;100.00
49645;BME280;36494;50.730;-1.932;2023-01-25T07:37:43;103139.50;;;-1.47;100.00
49645;BME280;36494;50.730;-1.932;2023-01-25T07:40:10;103140.45;;;-1.45;100.00
49645;BME280;36494;50.730;-1.932;2023-01-25T07:42:34;103141.87;;;-1.43;100.00
49645;BME280;36494;50.730;-1.932;2023-01-25T07:45:00;103142.52;;;-1.40;100.00
49645;BME280;36494;50.730;-1.932;2023-01-25T07:47:25;103142.18;;;-1.41;100.00
49645;BME280;36494;50.730;-1.932;2023-01-25T07:49:50;103140.66;;;-1.38;100.00
49645;BME280;36494;50.730;-1.932;2023-01-25T07:52:15;103137.23;;;-1.32;100.00
49645;BME280;36494;50.730;-1.932;2023-01-25T07:54:41;103132.14;;;-1.30;100.00
49645;BME280;36494;50.730;-1.932;2023-01-25T07:57:06;103132.52;;;-1.27;100.00
49645;BME280;36494;50.730;-1.932;2023-01-25T07:59:32;103125.93;;;-1.25;100.00
49645;BME280;36494;50.730;-1.932;2023-01-25T08:01:58;103124.53;;;-1.26;100.00
49645;BME280;36494;50.730;-1.932;2023-01-25T08:04:23;103127.54;;;-1.23;100.00
49645;BME280;36494;50.730;-1.932;2023-01-25T08:06:48;103124.72;;;-1.21;100.00
49645;BME280;36494;50.730;-1.932;2023-01-25T08:09:15;103125.01;;;-1.19;100.00
49645;BME280;36494;50.730;-1.932;2023-01-25T08:11:40;103120.71;;;-1.17;100.00
49645;BME280;36494;50.730;-1.932;2023-01-25T08:14:04;103121.40;;;-1.14;100.00
49645;BME280;36494;50.730;-1.932;2023-01-25T08:16:30;103116.55;;;-1.12;100.00
49645;BME280;36494;50.730;-1.932;2023-01-25T08:18:57;103115.00;;;-1.10;100.00
49645;BME280;36494;50.730;-1.932;2023-01-25T08:21:22;103113.49;;;-1.09;100.00
49645;BME280;36494;50.730;-1.932;2023-01-25T08:23:46;103115.63;;;-1.05;100.00
49645;BME280;36494;50.730;-1.932;2023-01-25T08:26:13;103115.44;;;-0.99;100.00
49645;BME280;36494;50.730;-1.932;2023-01-25T08:28:38;103119.07;;;-0.97;100.00
49645;BME280;36494;50.730;-1.932;2023-01-25T08:31:06;103117.09;;;-0.93;100.00
49645;BME280;36494;50.730;-1.932;2023-01-25T08:33:28;103115.44;;;-0.90;100.00
49645;BME280;36494;50.730;-1.932;2023-01-25T08:35:54;103109.70;;;-0.87;100.00
49645;BME280;36494;50.730;-1.932;2023-01-25T08:38:18;103104.77;;;-0.84;100.00
49645;BME280;36494;50.730;-1.932;2023-01-25T08:40:44;103099.74;;;-0.82;100.00
49645;BME280;36494;50.730;-1.932;2023-01-25T08:43:09;103095.63;;;-0.79;100.00
49645;BME280;36494;50.730;-1.932;2023-01-25T08:45:35;103092.64;;;-0.80;100.00
49645;BME280;36494;50.730;-1.932;2023-01-25T08:48:00;103091.33;;;-0.76;100.00
49645;BME280;36494;50.730;-1.932;2023-01-25T08:50:25;103085.10;;;-0.75;100.00
49645;BME280;36494;50.730;-1.932;2023-01-25T08:52:51;103082.47;;;-0.73;100.00
49645;BME280;36494;50.730;-1.932;2023-01-25T08:55:16;103077.18;;;-0.70;100.00
49645;BME280;36494;50.730;-1.932;2023-01-25T08:57:42;103069.31;;;-0.68;100.00
49645;BME280;36494;50.730;-1.932;2023-01-25T09:00:09;103067.99;;;-0.64;100.00
49645;BME280;36494;50.730;-1.932;2023-01-25T09:02:33;103075.03;;;-0.59;100.00
49645;BME280;36494;50.730;-1.932;2023-01-25T09:04:59;103079.23;;;-0.59;100.00
49645;BME280;36494;50.730;-1.932;2023-01-25T09:07:25;103079.24;;;-0.55;100.00
49645;BME280;36494;50.730;-1.932;2023-01-25T09:09:50;103079.86;;;-0.53;100.00
49645;BME280;36494;50.730;-1.932;2023-01-25T09:12:16;103081.12;;;-0.51;100.00
49645;BME280;36494;50.730;-1.932;2023-01-25T09:14:41;103078.41;;;-0.50;100.00
49645;BME280;36494;50.730;-1.932;2023-01-25T09:17:06;103073.53;;;-0.47;100.00
49645;BME280;36494;50.730;-1.932;2023-01-25T09:19:31;103074.26;;;-0.44;100.00
49645;BME280;36494;50.730;-1.932;2023-01-25T09:21:56;103074.72;;;-0.41;100.00
49645;BME280;36494;50.730;-1.932;2023-01-25T09:24:22;103064.35;;;-0.36;100.00
49645;BME280;36494;50.730;-1.932;2023-01-25T09:26:47;103062.83;;;-0.34;100.00
49645;BME280;36494;50.730;-1.932;2023-01-25T09:29:13;103061.54;;;-0.31;100.00
49645;BME280;36494;50.730;-1.932;2023-01-25T09:31:38;103056.01;;;-0.28;100.00
49645;BME280;36494;50.730;-1.932;2023-01-25T09:34:04;103051.20;;;-0.23;100.00
49645;BME280;36494;50.730;-1.932;2023-01-25T09:36:29;103040.92;;;-0.18;100.00
49645;BME280;36494;50.730;-1.932;2023-01-25T09:38:54;103035.77;;;-0.14;100.00
49645;BME280;36494;50.730;-1.932;2023-01-25T09:41:33;103025.22;;;-0.08;100.00
49645;BME280;36494;50.730;-1.932;2023-01-25T09:43:56;103013.38;;;-0.05;100.00
49645;BME280;36494;50.730;-1.932;2023-01-25T09:46:18;103011.21;;;0.01;100.00
49645;BME280;36494;50.730;-1.932;2023-01-25T09:48:40;103005.09;;;0.07;100.00
49645;BME280;36494;50.730;-1.932;2023-01-25T09:51:13;103000.91;;;0.14;100.00
49645;BME280;36494;50.730;-1.932;2023-01-25T09:53:32;102995.06;;;0.19;100.00
49645;BME280;36494;50.730;-1.932;2023-01-25T09:55:54;102995.64;;;0.28;100.00
49645;BME280;36494;50.730;-1.932;2023-01-25T09:58:19;102991.36;;;0.33;100.00
49645;BME280;36494;50.730;-1.932;2023-01-25T10:00:44;102981.03;;;0.39;100.00
49645;BME280;36494;50.730;-1.932;2023-01-25T10:03:14;102982.06;;;0.45;100.00
49645;BME280;36494;50.730;-1.932;2023-01-25T10:05:41;102984.01;;;0.49;100.00
49645;BME280;36494;50.730;-1.932;2023-01-25T10:08:04;102981.30;;;0.56;100.00
49645;BME280;36494;50.730;-1.932;2023-01-25T10:10:31;102985.09;;;0.62;100.00
49645;BME280;36494;50.730;-1.932;2023-01-25T10:12:51;102977.37;;;0.67;100.00
49645;BME280;36494;50.730;-1.932;2023-01-25T10:15:18;102974.55;;;0.71;100.00
49645;BME280;36494;50.730;-1.932;2023-01-25T10:17:42;102968.87;;;0.77;100.00
49645;BME280;36494;50.730;-1.932;2023-01-25T10:20:15;102963.01;;;0.74;100.00
49645;BME280;36494;50.730;-1.932;2023-01-25T10:22:37;102962.55;;;0.78;100.00
49645;BME280;36494;50.730;-1.932;2023-01-25T10:27:28;102953.49;;;0.81;100.00
49645;BME280;36494;50.730;-1.932;2023-01-25T10:29:51;102945.34;;;0.87;100.00
49645;BME280;36494;50.730;-1.932;2023-01-25T10:32:18;102942.22;;;0.90;100.00
49645;BME280;36494;50.730;-1.932;2023-01-25T10:34:45;102944.96;;;0.95;100.00
49645;BME280;36494;50.730;-1.932;2023-01-25T10:37:11;102939.82;;;0.97;100.00
49645;BME280;36494;50.730;-1.932;2023-01-25T10:39:37;102944.70;;;0.96;100.00
49645;BME280;36494;50.730;-1.932;2023-01-25T10:42:00;102942.84;;;1.01;100.00
49645;BME280;36494;50.730;-1.932;2023-01-25T10:44:24;102940.55;;;1.06;100.00
49645;BME280;36494;50.730;-1.932;2023-01-25T10:46:54;102934.68;;;1.04;100.00
49645;BME280;36494;50.730;-1.932;2023-01-25T10:49:21;102939.17;;;1.10;100.00
49645;BME280;36494;50.730;-1.932;2023-01-25T10:51:40;102934.04;;;1.12;100.00
49645;BME280;36494;50.730;-1.932;2023-01-25T10:54:13;102928.66;;;1.14;100.00
49645;BME280;36494;50.730;-1.932;2023-01-25T10:56:33;102921.22;;;1.17;100.00
49645;BME280;36494;50.730;-1.932;2023-01-25T10:59:05;102908.21;;;1.19;100.00
49645;BME280;36494;50.730;-1.932;2023-01-25T11:01:28;102903.38;;;1.12;100.00
49645;BME280;36494;50.730;-1.932;2023-01-25T11:03:47;102897.08;;;1.06;100.00
49645;BME280;36494;50.730;-1.932;2023-01-25T11:06:13;102898.53;;;1.12;100.00
49645;BME280;36494;50.730;-1.932;2023-01-25T11:08:39;102896.02;;;1.18;100.00
49645;BME280;36494;50.730;-1.932;2023-01-25T11:11:23;102896.59;;;1.23;100.00
49645;BME280;36494;50.730;-1.932;2023-01-25T11:13:32;102893.05;;;1.23;100.00
49645;BME280;36494;50.730;-1.932;2023-01-25T11:18:22;102884.51;;;1.27;100.00
49645;BME280;36494;50.730;-1.932;2023-01-25T11:20:45;102885.36;;;1.32;100.00
49645;BME280;36494;50.730;-1.932;2023-01-25T11:23:20;102885.83;;;1.28;100.00
49645;BME280;36494;50.730;-1.932;2023-01-25T11:25:36;102880.46;;;1.29;100.00
49645;BME280;36494;50.730;-1.932;2023-01-25T11:28:13;102881.00;;;1.34;100.00
49645;BME280;36494;50.730;-1.932;2023-01-25T11:30:27;102880.64;;;1.41;100.00
49645;BME280;36494;50.730;-1.932;2023-01-25T11:32:52;102867.86;;;1.49;100.00
49645;BME280;36494;50.730;-1.932;2023-01-25T11:35:24;102856.31;;;1.52;100.00
49645;BME280;36494;50.730;-1.932;2023-01-25T11:37:57;102847.20;;;1.45;100.00
49645;BME280;36494;50.730;-1.932;2023-01-25T11:40:15;102838.32;;;1.53;100.00
49645;BME280;36494;50.730;-1.932;2023-01-25T11:42:42;102829.25;;;1.57;100.00
49645;BME280;36494;50.730;-1.932;2023-01-25T11:45:11;102826.19;;;1.52;100.00
49645;BME280;36494;50.730;-1.932;2023-01-25T11:47:38;102829.20;;;1.51;100.00
49645;BME280;36494;50.730;-1.932;2023-01-25T11:50:00;102821.88;;;1.51;100.00
49645;BME280;36494;50.730;-1.932;2023-01-25T11:52:25;102823.21;;;1.58;100.00
49645;BME280;36494;50.730;-1.932;2023-01-25T11:54:50;102821.25;;;1.65;100.00
49645;BME280;36494;50.730;-1.932;2023-01-25T11:57:23;102827.57;;;1.72;100.00
49645;BME280;36494;50.730;-1.932;2023-01-25T11:59:52;102825.06;;;1.82;100.00
49645;BME280;36494;50.730;-1.932;2023-01-25T12:02:13;102823.27;;;1.82;100.00
49645;BME280;36494;50.730;-1.932;2023-01-25T12:04:37;102821.23;;;1.87;100.00
49645;BME280;36494;50.730;-1.932;2023-01-25T12:06:56;102818.64;;;1.87;100.00
49645;BME280;36494;50.730;-1.932;2023-01-25T12:09:24;102822.40;;;1.89;100.00
49645;BME280;36494;50.730;-1.932;2023-01-25T12:11:53;102819.66;;;1.92;100.00
49645;BME280;36494;50.730;-1.932;2023-01-25T12:14:14;102812.44;;;1.95;100.00
49645;BME280;36494;50.730;-1.932;2023-01-25T12:16:44;102817.23;;;1.94;100.00
49645;BME280;36494;50.730;-1.932;2023-01-25T12:19:08;102819.61;;;1.91;100.00
49645;BME280;36494;50.730;-1.932;2023-01-25T12:21:31;102819.22;;;1.97;100.00
49645;BME280;36494;50.730;-1.932;2023-01-25T12:23:59;102825.32;;;2.01;100.00
49645;BME280;36494;50.730;-1.932;2023-01-25T12:26:21;102823.84;;;2.00;100.00
49645;BME280;36494;50.730;-1.932;2023-01-25T12:28:43;102823.62;;;2.02;100.00